createdAt,value
2018-10-15T00:02:07.640Z,8.70
2018-10-15T00:04:35.075Z,8.57
2018-10-15T00:07:02.418Z,8.45
2018-10-15T00:09:30.397Z,8.35
2018-10-15T00:11:57.859Z,8.50
2018-10-15T00:14:25.722Z,8.41
2018-10-15T00:16:53.085Z,8.31
2018-10-15T00:19:20.486Z,8.27
2018-10-15T00:21:47.858Z,8.30
2018-10-15T00:24:15.230Z,8.29
2018-10-15T00:26:42.995Z,8.36
2018-10-15T00:29:10.434Z,8.54
2018-10-15T00:31:37.912Z,8.39
2018-10-15T00:34:05.324Z,8.57
2018-10-15T00:36:32.779Z,8.34
2018-10-15T00:39:00.193Z,8.36
2018-10-15T00:41:27.553Z,8.58
2018-10-15T00:43:55.003Z,8.51
2018-10-15T00:46:22.445Z,8.46
2018-10-15T00:48:49.973Z,8.45
2018-10-15T00:51:17.393Z,8.43
2018-10-15T00:53:44.848Z,8.28
2018-10-15T00:56:12.355Z,8.42
2018-10-15T00:58:39.858Z,8.24
2018-10-15T01:01:07.290Z,8.22
2018-10-15T01:03:34.673Z,8.07
2018-10-15T01:06:02.138Z,8.06
2018-10-15T01:08:29.526Z,8.10
2018-10-15T01:10:56.933Z,8.02
2018-10-15T01:13:24.317Z,7.98
2018-10-15T01:15:51.937Z,7.93
2018-10-15T01:18:19.351Z,7.81
2018-10-15T01:20:46.769Z,7.76
2018-10-15T01:23:14.206Z,7.61
2018-10-15T01:25:41.669Z,7.59
2018-10-15T01:28:09.097Z,7.23
2018-10-15T01:30:36.469Z,7.41
2018-10-15T01:33:04.163Z,7.58
2018-10-15T01:35:31.590Z,7.67
2018-10-15T01:37:58.957Z,7.59
2018-10-15T01:40:26.419Z,7.65
2018-10-15T01:42:53.851Z,7.81
2018-10-15T01:45:21.239Z,7.85
2018-10-15T01:47:48.659Z,7.77
2018-10-15T01:50:16.128Z,7.65
2018-10-15T01:52:43.579Z,7.62
2018-10-15T01:55:10.990Z,7.78
2018-10-15T01:57:38.658Z,7.81
2018-10-15T02:00:07.222Z,7.64
2018-10-15T02:02:34.598Z,7.45
2018-10-15T02:05:02.232Z,7.64
2018-10-15T02:07:29.865Z,7.64
2018-10-15T02:09:57.304Z,7.53
2018-10-15T02:12:24.738Z,7.61
2018-10-15T02:14:52.162Z,7.69
2018-10-15T02:17:19.551Z,7.59
2018-10-15T02:32:46.559Z,7.59
2018-10-15T02:35:14.268Z,7.49
2018-10-15T02:37:41.760Z,7.63
2018-10-15T02:40:09.293Z,7.61
2018-10-15T02:42:37.045Z,7.56
2018-10-15T02:45:05.747Z,7.57
2018-10-15T02:47:33.196Z,7.50
2018-10-15T02:50:00.678Z,7.44
2018-10-15T02:52:28.094Z,7.44
2018-10-15T02:54:55.448Z,7.45
2018-10-15T02:57:22.837Z,7.21
2018-10-15T02:59:50.196Z,7.24
2018-10-15T03:02:17.631Z,7.22
2018-10-15T03:04:45.017Z,7.14
2018-10-15T03:07:12.435Z,7.15
2018-10-15T03:09:39.853Z,7.18
2018-10-15T03:12:07.229Z,7.16
2018-10-15T03:14:34.663Z,6.42
2018-10-15T03:17:02.130Z,7.05
2018-10-15T03:19:29.606Z,7.07
2018-10-15T03:21:56.991Z,7.30
2018-10-15T03:24:24.499Z,7.34
2018-10-15T03:26:52.020Z,7.03
2018-10-15T03:29:19.413Z,6.85
2018-10-15T03:31:46.909Z,6.96
2018-10-15T03:34:14.311Z,7.06
2018-10-15T03:36:41.685Z,7.05
2018-10-15T03:39:09.890Z,6.97
2018-10-15T03:41:37.228Z,6.91
2018-10-15T03:44:05.353Z,6.89
2018-10-15T03:46:32.856Z,6.94
2018-10-15T03:49:00.262Z,6.95
2018-10-15T03:51:27.772Z,7.02
2018-10-15T03:53:55.341Z,7.04
2018-10-15T03:56:22.786Z,6.92
2018-10-15T03:58:50.141Z,6.81
2018-10-15T04:01:17.696Z,6.88
2018-10-15T04:03:45.248Z,6.81
2018-10-15T04:06:12.639Z,6.72
2018-10-15T04:08:40.154Z,6.55
2018-10-15T04:11:07.883Z,6.62
2018-10-15T04:13:35.329Z,6.60
2018-10-15T04:16:02.789Z,6.58
2018-10-15T04:18:30.208Z,6.55
2018-10-15T04:20:57.659Z,6.33
2018-10-15T04:23:25.135Z,6.29
2018-10-15T04:25:52.477Z,6.38
2018-10-15T04:28:19.828Z,6.45
2018-10-15T04:30:47.258Z,6.65
2018-10-15T04:33:14.634Z,6.58
2018-10-15T04:35:41.948Z,6.47
2018-10-15T04:38:09.361Z,6.41
2018-10-15T04:40:36.802Z,6.43
2018-10-15T04:56:03.727Z,6.41
2018-10-15T04:58:31.093Z,6.24
2018-10-15T05:00:58.723Z,6.25
2018-10-15T05:03:26.147Z,6.19
2018-10-15T05:05:53.485Z,6.06
2018-10-15T05:08:20.847Z,6.12
2018-10-15T05:10:48.177Z,6.07
2018-10-15T05:13:15.516Z,5.72
2018-10-15T05:15:42.924Z,5.82
2018-10-15T05:18:10.384Z,5.87
2018-10-15T05:20:37.701Z,5.83
2018-10-15T05:23:05.249Z,5.88
2018-10-15T05:25:32.599Z,5.98
2018-10-15T05:28:00.003Z,5.82
2018-10-15T05:30:27.582Z,5.74
2018-10-15T05:32:54.873Z,5.63
2018-10-15T05:35:22.257Z,5.79
2018-10-15T05:37:49.671Z,5.83
2018-10-15T05:40:17.131Z,5.76
2018-10-15T05:42:44.459Z,5.86
2018-10-15T05:45:12.589Z,5.83
2018-10-15T05:47:40.317Z,5.63
2018-10-15T05:50:09.413Z,5.72
2018-10-15T05:52:36.875Z,5.93
2018-10-15T05:55:05.185Z,5.92
2018-10-15T05:57:32.573Z,6.05
2018-10-15T05:59:59.929Z,6.11
2018-10-15T06:02:27.321Z,6.08
2018-10-15T06:04:54.733Z,6.05
2018-10-15T06:07:22.085Z,5.97
2018-10-15T06:09:49.516Z,5.95
2018-10-15T06:12:16.991Z,6.05
2018-10-15T06:14:44.348Z,6.05
2018-10-15T06:17:11.717Z,5.87
2018-10-15T06:19:39.128Z,5.99
2018-10-15T06:22:06.532Z,5.92
2018-10-15T06:24:33.881Z,5.98
2018-10-15T06:27:01.321Z,6.03
2018-10-15T06:29:28.722Z,6.16
2018-10-15T06:31:56.071Z,6.31
2018-10-15T06:34:23.456Z,6.43
2018-10-15T06:36:50.789Z,6.40
2018-10-15T06:39:18.147Z,6.36
2018-10-15T06:41:45.512Z,6.41
2018-10-15T06:44:12.843Z,6.45
2018-10-15T06:46:40.157Z,6.58
2018-10-15T06:49:07.590Z,6.76
2018-10-15T06:51:34.950Z,6.71
2018-10-15T06:54:02.370Z,6.84
2018-10-15T06:56:29.851Z,7.00
2018-10-15T06:58:57.262Z,7.15
2018-10-15T07:01:24.678Z,7.31
2018-10-15T07:03:52.107Z,7.45
2018-10-15T07:06:19.581Z,7.54
2018-10-15T07:08:46.993Z,7.71
2018-10-15T07:11:14.428Z,7.85
2018-10-15T07:13:41.900Z,8.00
2018-10-15T07:16:09.380Z,8.10
2018-10-15T07:18:36.767Z,8.21
2018-10-15T07:21:04.247Z,8.38
2018-10-15T07:23:31.609Z,8.48
2018-10-15T07:25:58.985Z,8.60
2018-10-15T07:28:26.517Z,8.86
2018-10-15T07:30:53.903Z,9.11
2018-10-15T07:33:21.246Z,9.62
2018-10-15T07:35:48.683Z,10.01
2018-10-15T07:38:16.090Z,10.18
2018-10-15T07:40:43.465Z,10.49
2018-10-15T07:43:10.863Z,10.74
2018-10-15T07:45:38.233Z,10.88
2018-10-15T07:48:05.750Z,11.00
2018-10-15T07:50:33.054Z,11.28
2018-10-15T07:53:00.546Z,11.42
2018-10-15T07:55:27.972Z,11.74
2018-10-15T07:57:55.264Z,11.93
2018-10-15T08:00:23.983Z,11.75
2018-10-15T08:02:51.605Z,12.18
2018-10-15T08:05:19.150Z,12.26
2018-10-15T08:07:46.965Z,12.46
2018-10-15T08:10:14.393Z,12.43
2018-10-15T08:12:42.085Z,12.54
2018-10-15T08:15:10.856Z,12.73
2018-10-15T08:17:38.261Z,12.75
2018-10-15T08:20:07.637Z,12.82
2018-10-15T08:22:34.935Z,12.95
2018-10-15T08:25:02.411Z,13.03
2018-10-15T08:27:29.750Z,13.21
2018-10-15T08:29:57.380Z,13.36
2018-10-15T08:32:24.789Z,13.37
2018-10-15T08:34:52.334Z,13.48
2018-10-15T08:37:19.573Z,13.63
2018-10-15T08:39:46.965Z,13.78
2018-10-15T08:42:14.463Z,13.95
2018-10-15T08:44:41.771Z,13.65
2018-10-15T08:47:09.184Z,14.10
2018-10-15T08:49:36.562Z,14.20
2018-10-15T08:52:04.034Z,14.31
2018-10-15T08:54:31.434Z,14.34
2018-10-15T08:56:58.884Z,14.47
2018-10-15T08:59:26.365Z,14.61
2018-10-15T09:01:53.760Z,14.73
2018-10-15T09:04:22.175Z,14.83
2018-10-15T09:06:49.709Z,14.87
2018-10-15T09:09:17.236Z,15.04
2018-10-15T09:11:44.342Z,15.17
2018-10-15T09:14:11.870Z,15.29
2018-10-15T09:16:39.218Z,15.41
2018-10-15T09:19:06.610Z,15.51
2018-10-15T09:21:34.288Z,15.64
2018-10-15T09:24:01.671Z,15.74
2018-10-15T09:26:29.638Z,15.83
2018-10-15T09:28:57.388Z,15.86
2018-10-15T09:31:24.801Z,16.02
2018-10-15T09:33:52.145Z,16.03
2018-10-15T09:36:19.757Z,16.20
2018-10-15T09:38:47.247Z,16.38
2018-10-15T09:41:14.598Z,16.59
2018-10-15T09:43:41.974Z,16.58
2018-10-15T09:46:09.269Z,16.73
2018-10-15T09:48:36.742Z,16.90
2018-10-15T09:51:04.284Z,17.00
2018-10-15T09:53:31.866Z,16.95
2018-10-15T09:55:59.319Z,16.96
2018-10-15T09:58:26.698Z,17.09
2018-10-15T10:00:59.740Z,17.11
2018-10-15T10:03:27.286Z,17.27
2018-10-15T10:05:54.719Z,17.51
2018-10-15T10:08:22.265Z,17.59
2018-10-15T10:10:49.668Z,17.58
2018-10-15T10:13:17.047Z,17.82
2018-10-15T10:15:44.466Z,17.72
2018-10-15T10:18:11.988Z,17.71
2018-10-15T10:20:39.310Z,17.96
2018-10-15T10:23:06.794Z,18.11
2018-10-15T10:25:34.198Z,18.28
2018-10-15T10:28:01.651Z,18.22
2018-10-15T10:30:29.072Z,18.40
2018-10-15T10:32:56.569Z,18.46
2018-10-15T10:35:48.347Z,18.67
2018-10-15T10:38:23.329Z,18.84
2018-10-15T10:40:50.888Z,18.93
2018-10-15T10:43:18.183Z,19.05
2018-10-15T10:45:45.797Z,19.06
2018-10-15T10:48:13.180Z,19.07
2018-10-15T10:50:40.602Z,19.09
2018-10-15T10:53:08.455Z,19.27
2018-10-15T10:55:35.854Z,19.51
2018-10-15T10:58:03.305Z,19.55
2018-10-15T11:00:30.645Z,19.46
2018-10-15T11:02:58.074Z,19.75
2018-10-15T11:05:25.714Z,19.58
2018-10-15T11:07:53.110Z,19.75
2018-10-15T11:10:20.522Z,19.66
2018-10-15T11:12:48.046Z,19.74
2018-10-15T11:15:15.451Z,19.72
2018-10-15T11:17:42.916Z,19.83
2018-10-15T11:20:10.389Z,19.77
2018-10-15T11:22:37.881Z,20.03
2018-10-15T11:25:05.474Z,20.12
2018-10-15T11:27:32.856Z,20.29
2018-10-15T11:30:00.496Z,20.35
2018-10-15T11:32:27.838Z,20.36
2018-10-15T11:34:55.336Z,20.64
2018-10-15T11:37:22.892Z,20.72
2018-10-15T11:39:50.307Z,20.82
2018-10-15T11:42:17.822Z,21.07
2018-10-15T11:44:45.214Z,21.34
2018-10-15T11:47:12.930Z,21.90
2018-10-15T11:49:40.354Z,22.15
2018-10-15T11:52:07.837Z,22.43
2018-10-15T11:54:35.249Z,22.52
2018-10-15T11:57:02.676Z,22.94
2018-10-15T11:59:30.031Z,23.33
2018-10-15T12:01:57.462Z,23.52
2018-10-15T12:04:24.980Z,23.48
2018-10-15T12:06:52.378Z,22.95
2018-10-15T12:09:19.845Z,23.45
2018-10-15T12:11:47.252Z,23.04
2018-10-15T12:14:14.657Z,23.48
2018-10-15T12:16:42.083Z,23.69
2018-10-15T12:19:09.566Z,23.86
2018-10-15T12:21:36.964Z,24.49
2018-10-15T12:24:04.404Z,24.16
2018-10-15T12:26:31.774Z,24.75
2018-10-15T12:28:59.219Z,24.23
2018-10-15T12:31:26.703Z,24.27
2018-10-15T12:33:54.086Z,24.95
2018-10-15T12:36:21.535Z,24.43
2018-10-15T12:38:48.984Z,24.46
2018-10-15T12:41:16.530Z,24.37
2018-10-15T12:43:44.017Z,24.73
2018-10-15T12:46:11.456Z,24.81
2018-10-15T12:48:38.900Z,24.70
2018-10-15T12:51:06.383Z,24.31
2018-10-15T12:53:33.848Z,24.84
2018-10-15T12:56:01.198Z,24.44
2018-10-15T12:58:28.614Z,24.35
2018-10-15T13:00:56.002Z,24.81
2018-10-15T13:03:23.454Z,24.84
2018-10-15T13:05:50.837Z,25.19
2018-10-15T13:08:18.275Z,24.68
2018-10-15T13:10:45.672Z,24.35
2018-10-15T13:13:13.045Z,24.86
2018-10-15T13:15:40.415Z,24.90
2018-10-15T13:18:07.824Z,24.62
2018-10-15T13:20:35.360Z,24.89
2018-10-15T13:23:02.766Z,24.83
2018-10-15T13:25:30.286Z,25.31
2018-10-15T13:27:57.759Z,24.88
2018-10-15T13:30:25.310Z,24.91
2018-10-15T13:32:52.733Z,25.19
2018-10-15T13:35:20.218Z,24.56
2018-10-15T13:37:47.617Z,25.20
2018-10-15T13:40:15.062Z,24.86
2018-10-15T13:42:42.559Z,24.38
2018-10-15T13:45:11.293Z,24.52
2018-10-15T13:47:38.758Z,24.63
2018-10-15T13:50:07.333Z,24.54
2018-10-15T13:52:34.896Z,24.90
2018-10-15T13:55:02.654Z,23.91
2018-10-15T13:57:30.028Z,24.04
2018-10-15T13:59:57.523Z,24.76
2018-10-15T14:02:24.889Z,25.07
2018-10-15T14:04:52.345Z,24.75
2018-10-15T14:07:19.735Z,24.32
2018-10-15T14:09:47.139Z,23.79
2018-10-15T14:12:14.507Z,24.29
2018-10-15T14:14:41.861Z,24.14
2018-10-15T14:17:09.480Z,23.94
2018-10-15T14:19:36.790Z,24.54
2018-10-15T14:22:04.431Z,23.40
2018-10-15T14:24:31.782Z,23.44
2018-10-15T14:26:59.160Z,23.35
2018-10-15T14:29:26.637Z,22.98
2018-10-15T14:31:54.060Z,22.68
2018-10-15T14:34:21.422Z,23.93
2018-10-15T14:36:48.942Z,22.23
2018-10-15T14:39:16.330Z,22.56
2018-10-15T14:41:43.719Z,22.62
2018-10-15T14:44:11.143Z,22.69
2018-10-15T14:46:38.506Z,21.98
2018-10-15T14:49:05.890Z,22.14
2018-10-15T14:51:33.265Z,22.73
2018-10-15T14:54:00.595Z,22.11
2018-10-15T14:56:28.115Z,22.14
2018-10-15T14:58:55.452Z,22.70
2018-10-15T15:01:22.891Z,21.92
2018-10-15T15:03:50.654Z,22.10
2018-10-15T15:06:18.034Z,22.33
2018-10-15T15:08:45.386Z,21.43
2018-10-15T15:11:24.066Z,21.49
2018-10-15T15:14:07.544Z,20.56
2018-10-15T15:16:35.018Z,20.20
2018-10-15T15:19:02.366Z,19.57
2018-10-15T15:21:29.802Z,19.65
2018-10-15T15:23:57.165Z,19.42
2018-10-15T15:26:24.512Z,19.44
2018-10-15T15:28:51.870Z,19.37
2018-10-15T15:31:19.343Z,19.06
2018-10-15T15:33:46.707Z,19.07
2018-10-15T15:36:14.070Z,19.05
2018-10-15T15:38:41.452Z,18.78
2018-10-15T15:41:08.789Z,18.75
2018-10-15T15:43:36.231Z,18.71
2018-10-15T15:46:03.698Z,18.63
2018-10-15T15:48:31.054Z,18.37
2018-10-15T15:50:58.381Z,18.24
2018-10-15T15:53:26.103Z,18.17
2018-10-15T15:55:54.656Z,18.10
2018-10-15T15:58:22.553Z,18.04
2018-10-15T16:00:50.270Z,17.94
2018-10-15T16:03:17.715Z,17.94
2018-10-15T16:05:48.748Z,17.83
2018-10-15T16:08:17.007Z,17.79
2018-10-15T16:10:44.608Z,17.66
2018-10-15T16:13:12.027Z,17.68
2018-10-15T16:15:39.387Z,17.60
2018-10-15T16:18:06.735Z,17.71
2018-10-15T16:20:34.288Z,17.54
2018-10-15T16:23:01.763Z,17.47
2018-10-15T16:25:29.229Z,17.36
2018-10-15T16:27:56.739Z,17.34
2018-10-15T16:30:24.165Z,17.28
2018-10-15T16:32:51.591Z,17.47
2018-10-15T16:35:18.997Z,17.19
2018-10-15T16:37:46.445Z,17.06
2018-10-15T16:40:13.939Z,16.92
2018-10-15T16:42:41.828Z,16.74
2018-10-15T16:45:11.084Z,16.72
2018-10-15T16:47:38.973Z,16.58
2018-10-15T16:50:08.704Z,16.50
2018-10-15T16:52:36.773Z,16.50
2018-10-15T16:55:05.291Z,16.50
2018-10-15T16:57:32.945Z,16.47
2018-10-15T17:00:00.409Z,16.48
2018-10-15T17:02:27.825Z,16.40
2018-10-15T17:04:55.408Z,16.33
2018-10-15T17:07:22.832Z,16.46
2018-10-15T17:09:50.265Z,16.38
2018-10-15T17:12:22.914Z,16.41
2018-10-15T17:14:50.326Z,16.45
2018-10-15T17:17:17.781Z,16.42
2018-10-15T17:19:45.199Z,16.31
2018-10-15T17:22:12.584Z,16.24
2018-10-15T17:24:40.046Z,16.21
2018-10-15T17:27:07.471Z,16.13
2018-10-15T17:29:35.053Z,15.28
2018-10-15T17:32:02.446Z,15.94
2018-10-15T17:34:29.849Z,15.95
2018-10-15T17:36:57.544Z,15.95
2018-10-15T17:39:25.038Z,15.94
2018-10-15T17:41:52.938Z,15.77
2018-10-15T17:44:20.431Z,15.75
2018-10-15T17:46:47.928Z,15.71
2018-10-15T17:49:15.435Z,15.55
2018-10-15T17:51:43.042Z,15.50
2018-10-15T17:54:10.556Z,15.33
2018-10-15T17:56:38.035Z,15.28
2018-10-15T17:59:05.506Z,15.18
2018-10-15T18:01:33.001Z,15.13
2018-10-15T18:04:02.192Z,15.16
2018-10-15T18:06:29.678Z,15.11
2018-10-15T18:08:57.179Z,15.05
2018-10-15T18:11:25.695Z,15.06
2018-10-15T18:13:53.530Z,15.00
2018-10-15T18:16:21.246Z,14.94
2018-10-15T18:18:49.702Z,14.87
2018-10-15T18:21:17.539Z,14.88
2018-10-15T18:23:44.948Z,14.83
2018-10-15T18:26:12.413Z,14.70
2018-10-15T18:28:39.861Z,14.61
2018-10-15T18:31:07.283Z,14.59
2018-10-15T18:33:34.706Z,14.46
2018-10-15T18:36:02.134Z,14.48
2018-10-15T18:38:29.537Z,14.56
2018-10-15T18:40:57.006Z,14.44
2018-10-15T18:43:24.495Z,14.06
2018-10-15T18:45:51.979Z,14.30
2018-10-15T18:48:19.536Z,14.13
2018-10-15T18:50:46.939Z,14.06
2018-10-15T18:53:14.321Z,14.00
2018-10-15T18:55:41.682Z,13.68
2018-10-15T18:58:09.052Z,13.59
2018-10-15T19:00:36.460Z,13.54
2018-10-15T19:03:03.939Z,13.42
2018-10-15T19:05:31.437Z,13.27
2018-10-15T19:07:58.758Z,13.05
2018-10-15T19:10:26.329Z,13.00
2018-10-15T19:12:53.738Z,12.97
2018-10-15T19:15:21.119Z,12.86
2018-10-15T19:17:48.631Z,12.84
2018-10-15T19:20:16.250Z,12.74
2018-10-15T19:22:44.127Z,12.45
2018-10-15T19:25:11.553Z,12.51
2018-10-15T19:27:39.059Z,12.59
2018-10-15T19:30:08.089Z,12.62
2018-10-15T19:32:35.606Z,12.46
2018-10-15T19:35:11.518Z,11.90
2018-10-15T19:37:39.890Z,11.80
2018-10-15T19:40:07.437Z,11.53
2018-10-15T19:42:35.047Z,11.67
2018-10-15T19:45:02.904Z,11.77
2018-10-15T19:47:30.465Z,12.02
2018-10-15T19:49:57.854Z,12.00
2018-10-15T19:52:25.343Z,12.10
2018-10-15T19:54:52.676Z,11.77
2018-10-15T19:57:20.179Z,11.79
2018-10-15T19:59:47.671Z,11.63
2018-10-15T20:02:15.290Z,11.58
2018-10-15T20:04:43.632Z,11.39
2018-10-15T20:07:11.182Z,11.46
2018-10-15T20:09:38.617Z,11.54
2018-10-15T20:12:06.049Z,11.44
2018-10-15T20:14:33.641Z,11.16
2018-10-15T20:17:01.171Z,11.19
2018-10-15T20:19:28.725Z,10.90
2018-10-15T20:21:56.465Z,10.85
2018-10-15T20:24:24.113Z,10.83
2018-10-15T20:26:51.564Z,10.74
2018-10-15T20:29:19.119Z,10.88
2018-10-15T20:31:48.919Z,10.99
2018-10-15T20:34:17.459Z,10.92
2018-10-15T20:36:45.374Z,11.02
2018-10-15T20:39:15.955Z,10.74
2018-10-15T20:41:44.319Z,10.61
2018-10-15T20:44:12.103Z,10.64
2018-10-15T20:46:40.300Z,10.42
2018-10-15T20:49:09.280Z,8.53
2018-10-15T20:51:38.721Z,10.39
2018-10-15T20:54:07.270Z,10.30
2018-10-15T20:56:35.003Z,10.52
2018-10-15T20:59:02.771Z,10.42
2018-10-15T21:01:30.413Z,10.27
2018-10-15T21:03:58.382Z,10.02
2018-10-15T21:06:26.222Z,9.99
2018-10-15T21:08:54.044Z,9.92
2018-10-15T21:11:21.764Z,9.89
2018-10-15T21:13:49.585Z,10.02
2018-10-15T21:16:17.326Z,10.04
2018-10-15T21:18:45.146Z,10.13
2018-10-15T21:21:12.785Z,9.88
2018-10-15T21:23:40.547Z,9.92
2018-10-15T21:26:08.509Z,10.03
2018-10-15T21:28:36.345Z,9.82
2018-10-15T21:31:04.409Z,9.72
2018-10-15T21:33:32.111Z,9.85
2018-10-15T21:35:59.867Z,9.71
2018-10-15T21:38:27.706Z,9.61
2018-10-15T21:40:55.952Z,9.60
2018-10-15T21:43:23.652Z,9.58
2018-10-15T21:45:51.484Z,9.60
2018-10-15T21:48:19.151Z,9.69
2018-10-15T21:50:48.122Z,9.75
2018-10-15T21:53:16.241Z,9.65
2018-10-15T21:55:44.028Z,9.66
2018-10-15T21:58:11.972Z,9.64
2018-10-15T22:00:44.365Z,9.55
2018-10-15T22:03:12.344Z,9.37
2018-10-15T22:05:39.975Z,9.26
2018-10-15T22:08:07.981Z,9.33
2018-10-15T22:10:35.688Z,9.28
2018-10-15T22:13:03.414Z,9.25
2018-10-15T22:15:30.770Z,9.21
2018-10-15T22:17:58.085Z,9.29
2018-10-15T22:20:25.460Z,9.26
2018-10-15T22:22:52.920Z,9.02
2018-10-15T22:25:20.274Z,9.01
2018-10-15T22:27:47.674Z,8.93
2018-10-15T22:30:15.177Z,8.93
2018-10-15T22:32:42.502Z,9.05
2018-10-15T22:35:11.030Z,9.17
2018-10-15T22:37:38.583Z,8.80
2018-10-15T22:40:06.786Z,8.39
2018-10-15T22:42:34.149Z,8.57
2018-10-15T22:45:01.539Z,8.50
2018-10-15T22:47:28.987Z,8.52
2018-10-15T22:49:56.455Z,8.30
2018-10-15T22:52:23.795Z,8.41
2018-10-15T22:54:51.275Z,8.36
2018-10-15T22:57:18.611Z,8.37
2018-10-15T22:59:46.058Z,8.42
2018-10-15T23:02:13.430Z,8.31
2018-10-15T23:04:40.742Z,7.90
2018-10-15T23:07:08.908Z,7.99
2018-10-15T23:09:36.261Z,8.07
2018-10-15T23:12:03.620Z,8.04
2018-10-15T23:14:30.893Z,8.07
2018-10-15T23:16:58.255Z,8.00
2018-10-15T23:19:25.774Z,6.94
2018-10-15T23:21:53.606Z,7.69
2018-10-15T23:24:21.348Z,7.76
2018-10-15T23:26:48.718Z,7.86
2018-10-15T23:29:16.062Z,7.86
2018-10-15T23:31:43.424Z,7.91
2018-10-15T23:34:10.860Z,7.98
2018-10-15T23:36:38.301Z,7.76
2018-10-15T23:39:08.982Z,7.80
2018-10-15T23:41:36.322Z,7.52
2018-10-15T23:44:03.726Z,7.37
2018-10-15T23:46:31.110Z,7.43
2018-10-15T23:48:58.491Z,7.65
2018-10-15T23:51:25.871Z,7.73
2018-10-15T23:53:53.289Z,7.73
2018-10-15T23:56:20.678Z,7.71
2018-10-15T23:58:47.994Z,7.64
